Terminal Aerodrome Forecast
Issued by NWS

Home | Current Version | Previous Version | Text Only | Print | Product List | Glossary On
Versions: 1 2 3 4 5 6 7 8 9 10 11 12 13 14 15
000
FTUS42 KTAE 012300
TAFDHN
TAF
KDHN 012335Z 0200/0224 06005KT 5SM BR OVC004
     FM020600 10003KT 1/2SM FG OVC002
     FM021600 20003KT 5SM BR OVC007=

USA.gov is the U.S. government's official web portal to all federal, state and local government web resources and services.